sensor_id;sensor_type;location;lat;lon;timestamp;temperature;humidity
1453;DHT22;720;47.738;7.998;2023-04-01T00:00:53;6.80;99.90
1453;DHT22;720;47.738;7.998;2023-04-01T00:03:20;6.70;99.90
1453;DHT22;720;47.738;7.998;2023-04-01T00:05:47;6.80;99.90
1453;DHT22;720;47.738;7.998;2023-04-01T00:08:12;6.70;99.90
1453;DHT22;720;47.738;7.998;2023-04-01T00:10:38;6.70;99.90
1453;DHT22;720;47.738;7.998;2023-04-01T00:13:04;6.70;99.90
1453;DHT22;720;47.738;7.998;2023-04-01T00:15:29;6.60;99.90
1453;DHT22;720;47.738;7.998;2023-04-01T00:17:55;6.50;99.90
1453;DHT22;720;47.738;7.998;2023-04-01T00:20:21;6.50;99.90
1453;DHT22;720;47.738;7.998;2023-04-01T00:22:47;6.50;99.90
1453;DHT22;720;47.738;7.998;2023-04-01T00:25:13;6.60;99.90
1453;DHT22;720;47.738;7.998;2023-04-01T00:27:39;6.60;99.90
1453;DHT22;720;47.738;7.998;2023-04-01T00:30:05;6.60;99.90
1453;DHT22;720;47.738;7.998;2023-04-01T00:32:31;6.50;99.90
1453;DHT22;720;47.738;7.998;2023-04-01T00:34:56;6.60;99.90
1453;DHT22;720;47.738;7.998;2023-04-01T00:37:24;6.60;99.90
1453;DHT22;720;47.738;7.998;2023-04-01T00:39:50;6.60;99.90
1453;DHT22;720;47.738;7.998;2023-04-01T00:42:16;6.80;99.90
1453;DHT22;720;47.738;7.998;2023-04-01T00:44:42;6.80;99.90
1453;DHT22;720;47.738;7.998;2023-04-01T00:47:08;7.00;99.90
1453;DHT22;720;47.738;7.998;2023-04-01T00:49:37;7.00;99.90
1453;DHT22;720;47.738;7.998;2023-04-01T00:52:05;6.90;99.90
1453;DHT22;720;47.738;7.998;2023-04-01T00:54:33;7.00;99.90
1453;DHT22;720;47.738;7.998;2023-04-01T00:57:02;7.20;99.90
1453;DHT22;720;47.738;7.998;2023-04-01T00:59:33;7.30;99.90
1453;DHT22;720;47.738;7.998;2023-04-01T01:02:00;7.40;99.90
1453;DHT22;720;47.738;7.998;2023-04-01T01:04:29;7.30;99.90
1453;DHT22;720;47.738;7.998;2023-04-01T01:15:29;7.30;99.90
1453;DHT22;720;47.738;7.998;2023-04-01T01:18:07;7.20;99.90
1453;DHT22;720;47.738;7.998;2023-04-01T01:34:22;6.80;99.90
1453;DHT22;720;47.738;7.998;2023-04-01T01:36:54;6.80;99.90
1453;DHT22;720;47.738;7.998;2023-04-01T01:39:26;6.90;99.90
1453;DHT22;720;47.738;7.998;2023-04-01T01:41:56;6.90;99.90
1453;DHT22;720;47.738;7.998;2023-04-01T01:44:23;6.80;99.90
1453;DHT22;720;47.738;7.998;2023-04-01T01:46:50;6.80;99.90
1453;DHT22;720;47.738;7.998;2023-04-01T01:49:16;6.90;99.90
1453;DHT22;720;47.738;7.998;2023-04-01T01:51:43;6.90;99.90
1453;DHT22;720;47.738;7.998;2023-04-01T01:54:17;7.00;99.90
1453;DHT22;720;47.738;7.998;2023-04-01T01:56:46;7.00;99.90
1453;DHT22;720;47.738;7.998;2023-04-01T01:59:13;6.90;99.90
1453;DHT22;720;47.738;7.998;2023-04-01T02:01:43;6.80;99.90
1453;DHT22;720;47.738;7.998;2023-04-01T02:04:11;6.50;99.90
1453;DHT22;720;47.738;7.998;2023-04-01T02:06:41;6.60;99.90
1453;DHT22;720;47.738;7.998;2023-04-01T02:09:09;6.70;99.90
1453;DHT22;720;47.738;7.998;2023-04-01T02:11:46;6.70;99.90
1453;DHT22;720;47.738;7.998;2023-04-01T02:14:37;6.80;99.90
1453;DHT22;720;47.738;7.998;2023-04-01T02:17:08;6.70;99.90
1453;DHT22;720;47.738;7.998;2023-04-01T02:19:57;6.70;99.90
1453;DHT22;720;47.738;7.998;2023-04-01T02:22:27;6.80;99.90
1453;DHT22;720;47.738;7.998;2023-04-01T02:24:56;6.90;99.90
1453;DHT22;720;47.738;7.998;2023-04-01T02:27:23;6.90;99.90
1453;DHT22;720;47.738;7.998;2023-04-01T02:29:50;6.90;99.90
1453;DHT22;720;47.738;7.998;2023-04-01T02:32:16;6.90;99.90
1453;DHT22;720;47.738;7.998;2023-04-01T02:34:43;6.80;99.90
1453;DHT22;720;47.738;7.998;2023-04-01T02:37:11;6.70;99.90
1453;DHT22;720;47.738;7.998;2023-04-01T02:39:37;6.60;99.90
1453;DHT22;720;47.738;7.998;2023-04-01T02:42:02;6.60;99.90
1453;DHT22;720;47.738;7.998;2023-04-01T02:44:28;6.70;99.90
1453;DHT22;720;47.738;7.998;2023-04-01T02:46:54;6.80;99.90
1453;DHT22;720;47.738;7.998;2023-04-01T02:49:19;6.80;99.90
1453;DHT22;720;47.738;7.998;2023-04-01T02:51:45;6.70;99.90
1453;DHT22;720;47.738;7.998;2023-04-01T02:54:11;6.60;99.90
1453;DHT22;720;47.738;7.998;2023-04-01T02:56:36;6.50;99.90
1453;DHT22;720;47.738;7.998;2023-04-01T02:59:02;6.50;99.90
1453;DHT22;720;47.738;7.998;2023-04-01T03:01:28;6.60;99.90
1453;DHT22;720;47.738;7.998;2023-04-01T03:03:53;6.60;99.90
1453;DHT22;720;47.738;7.998;2023-04-01T03:06:19;6.60;99.90
1453;DHT22;720;47.738;7.998;2023-04-01T03:08:45;6.40;99.90
1453;DHT22;720;47.738;7.998;2023-04-01T03:11:11;6.40;99.90
1453;DHT22;720;47.738;7.998;2023-04-01T03:13:37;6.40;99.90
1453;DHT22;720;47.738;7.998;2023-04-01T03:16:03;6.60;99.90
1453;DHT22;720;47.738;7.998;2023-04-01T03:18:29;6.60;99.90
1453;DHT22;720;47.738;7.998;2023-04-01T03:20:54;6.70;99.90
1453;DHT22;720;47.738;7.998;2023-04-01T03:23:20;6.60;99.90
1453;DHT22;720;47.738;7.998;2023-04-01T03:25:47;6.60;99.90
1453;DHT22;720;47.738;7.998;2023-04-01T03:28:13;6.90;99.90
1453;DHT22;720;47.738;7.998;2023-04-01T03:30:39;7.00;99.90
1453;DHT22;720;47.738;7.998;2023-04-01T03:33:05;7.00;99.90
1453;DHT22;720;47.738;7.998;2023-04-01T03:35:31;7.00;99.90
1453;DHT22;720;47.738;7.998;2023-04-01T03:37:57;7.10;99.90
1453;DHT22;720;47.738;7.998;2023-04-01T03:40:23;7.00;99.90
1453;DHT22;720;47.738;7.998;2023-04-01T03:42:49;6.80;99.90
1453;DHT22;720;47.738;7.998;2023-04-01T03:45:15;6.90;99.90
1453;DHT22;720;47.738;7.998;2023-04-01T03:47:41;6.90;99.90
1453;DHT22;720;47.738;7.998;2023-04-01T03:50:08;6.90;99.90
1453;DHT22;720;47.738;7.998;2023-04-01T03:52:34;7.00;99.90
1453;DHT22;720;47.738;7.998;2023-04-01T03:55:00;6.80;99.90
1453;DHT22;720;47.738;7.998;2023-04-01T03:57:26;6.80;99.90
1453;DHT22;720;47.738;7.998;2023-04-01T03:59:52;6.90;99.90
1453;DHT22;720;47.738;7.998;2023-04-01T04:02:18;6.90;99.90
1453;DHT22;720;47.738;7.998;2023-04-01T04:04:43;6.80;99.90
1453;DHT22;720;47.738;7.998;2023-04-01T04:07:09;6.80;99.90
1453;DHT22;720;47.738;7.998;2023-04-01T04:09:35;6.90;99.90
1453;DHT22;720;47.738;7.998;2023-04-01T04:12:00;6.70;99.90
1453;DHT22;720;47.738;7.998;2023-04-01T04:14:26;6.70;99.90
1453;DHT22;720;47.738;7.998;2023-04-01T04:16:52;6.50;99.90
1453;DHT22;720;47.738;7.998;2023-04-01T04:19:17;6.40;99.90
1453;DHT22;720;47.738;7.998;2023-04-01T04:21:43;6.50;99.90
1453;DHT22;720;47.738;7.998;2023-04-01T04:24:09;6.70;99.90
1453;DHT22;720;47.738;7.998;2023-04-01T04:26:35;6.70;99.90
1453;DHT22;720;47.738;7.998;2023-04-01T04:29:01;6.80;99.90
1453;DHT22;720;47.738;7.998;2023-04-01T04:31:27;6.70;99.90
1453;DHT22;720;47.738;7.998;2023-04-01T04:33:53;6.70;99.90
1453;DHT22;720;47.738;7.998;2023-04-01T04:36:21;6.70;99.90
1453;DHT22;720;47.738;7.998;2023-04-01T04:38:47;6.60;99.90
1453;DHT22;720;47.738;7.998;2023-04-01T04:41:14;6.60;99.90
1453;DHT22;720;47.738;7.998;2023-04-01T04:43:41;6.50;99.90
1453;DHT22;720;47.738;7.998;2023-04-01T04:46:08;6.40;99.90
1453;DHT22;720;47.738;7.998;2023-04-01T04:48:34;6.40;99.90
1453;DHT22;720;47.738;7.998;2023-04-01T04:51:00;6.40;99.90
1453;DHT22;720;47.738;7.998;2023-04-01T04:53:26;6.40;99.90
1453;DHT22;720;47.738;7.998;2023-04-01T04:55:52;6.50;99.90
1453;DHT22;720;47.738;7.998;2023-04-01T04:58:18;6.60;99.90
1453;DHT22;720;47.738;7.998;2023-04-01T05:00:44;6.70;99.90
1453;DHT22;720;47.738;7.998;2023-04-01T05:03:11;6.70;99.90
1453;DHT22;720;47.738;7.998;2023-04-01T05:05:37;6.60;99.90
1453;DHT22;720;47.738;7.998;2023-04-01T05:08:03;6.60;99.90
1453;DHT22;720;47.738;7.998;2023-04-01T05:10:29;6.50;99.90
1453;DHT22;720;47.738;7.998;2023-04-01T05:12:55;6.60;99.90
1453;DHT22;720;47.738;7.998;2023-04-01T05:15:21;6.50;99.90
1453;DHT22;720;47.738;7.998;2023-04-01T05:17:47;6.50;99.90
1453;DHT22;720;47.738;7.998;2023-04-01T05:20:14;6.50;99.90
1453;DHT22;720;47.738;7.998;2023-04-01T05:22:40;6.40;99.90
1453;DHT22;720;47.738;7.998;2023-04-01T05:25:06;6.60;99.90
1453;DHT22;720;47.738;7.998;2023-04-01T05:27:32;6.80;99.90
1453;DHT22;720;47.738;7.998;2023-04-01T05:29:58;6.70;99.90
1453;DHT22;720;47.738;7.998;2023-04-01T05:32:24;6.70;99.90
1453;DHT22;720;47.738;7.998;2023-04-01T05:34:53;6.70;99.90
1453;DHT22;720;47.738;7.998;2023-04-01T05:37:19;6.70;99.90
1453;DHT22;720;47.738;7.998;2023-04-01T05:39:45;6.50;99.90
1453;DHT22;720;47.738;7.998;2023-04-01T05:42:11;6.60;99.90
1453;DHT22;720;47.738;7.998;2023-04-01T05:44:36;6.60;99.90
1453;DHT22;720;47.738;7.998;2023-04-01T05:47:03;6.60;99.90
1453;DHT22;720;47.738;7.998;2023-04-01T05:49:29;6.50;99.90
1453;DHT22;720;47.738;7.998;2023-04-01T05:51:55;6.60;99.90
1453;DHT22;720;47.738;7.998;2023-04-01T05:54:21;6.70;99.90
1453;DHT22;720;47.738;7.998;2023-04-01T05:56:46;6.70;99.90
1453;DHT22;720;47.738;7.998;2023-04-01T05:59:12;6.80;99.90
1453;DHT22;720;47.738;7.998;2023-04-01T06:01:38;6.90;99.90
1453;DHT22;720;47.738;7.998;2023-04-01T06:04:04;6.80;99.90
1453;DHT22;720;47.738;7.998;2023-04-01T06:06:31;6.70;99.90
1453;DHT22;720;47.738;7.998;2023-04-01T06:09:12;6.70;99.90
1453;DHT22;720;47.738;7.998;2023-04-01T06:12:07;7.00;99.90
1453;DHT22;720;47.738;7.998;2023-04-01T06:17:26;9.10;99.90
1453;DHT22;720;47.738;7.998;2023-04-01T06:20:11;9.90;99.90
1453;DHT22;720;47.738;7.998;2023-04-01T06:28:44;11.40;96.30
1453;DHT22;720;47.738;7.998;2023-04-01T06:42:23;8.50;98.60
1453;DHT22;720;47.738;7.998;2023-04-01T06:48:40;7.60;99.90
1453;DHT22;720;47.738;7.998;2023-04-01T06:56:10;7.20;99.90
1453;DHT22;720;47.738;7.998;2023-04-01T07:01:10;7.10;99.90
1453;DHT22;720;47.738;7.998;2023-04-01T07:04:14;6.90;99.90
1453;DHT22;720;47.738;7.998;2023-04-01T07:06:59;6.80;99.90
1453;DHT22;720;47.738;7.998;2023-04-01T07:09:32;6.80;99.90
1453;DHT22;720;47.738;7.998;2023-04-01T07:12:02;6.90;99.90
1453;DHT22;720;47.738;7.998;2023-04-01T07:14:36;6.80;99.90
1453;DHT22;720;47.738;7.998;2023-04-01T07:17:25;6.60;99.90
1453;DHT22;720;47.738;7.998;2023-04-01T07:22:51;6.60;99.90
1453;DHT22;720;47.738;7.998;2023-04-01T07:25:21;6.50;99.90
1453;DHT22;720;47.738;7.998;2023-04-01T07:27:48;6.50;99.90
1453;DHT22;720;47.738;7.998;2023-04-01T07:30:18;6.50;99.90
1453;DHT22;720;47.738;7.998;2023-04-01T07:33:25;6.60;99.90
1453;DHT22;720;47.738;7.998;2023-04-01T07:36:03;6.70;99.90
1453;DHT22;720;47.738;7.998;2023-04-01T07:44:59;6.50;99.90
1453;DHT22;720;47.738;7.998;2023-04-01T08:01:11;7.20;99.90
1453;DHT22;720;47.738;7.998;2023-04-01T08:06:24;7.30;99.90
1453;DHT22;720;47.738;7.998;2023-04-01T08:15:28;7.60;99.90
1453;DHT22;720;47.738;7.998;2023-04-01T08:17:31;7.50;99.90
1453;DHT22;720;47.738;7.998;2023-04-01T08:21:17;7.50;99.90
1453;DHT22;720;47.738;7.998;2023-04-01T08:23:12;7.40;99.90
1453;DHT22;720;47.738;7.998;2023-04-01T08:28:34;7.20;99.90
1453;DHT22;720;47.738;7.998;2023-04-01T08:31:05;7.30;99.90
1453;DHT22;720;47.738;7.998;2023-04-01T08:33:33;7.20;99.90
1453;DHT22;720;47.738;7.998;2023-04-01T08:38:49;7.10;99.90
1453;DHT22;720;47.738;7.998;2023-04-01T08:52:59;7.10;99.90
1453;DHT22;720;47.738;7.998;2023-04-01T09:00:53;7.30;99.90
1453;DHT22;720;47.738;7.998;2023-04-01T09:11:31;7.50;99.90
1453;DHT22;720;47.738;7.998;2023-04-01T09:17:09;7.30;99.90
1453;DHT22;720;47.738;7.998;2023-04-01T09:20:01;7.30;99.90
1453;DHT22;720;47.738;7.998;2023-04-01T09:23:13;7.30;99.90
1453;DHT22;720;47.738;7.998;2023-04-01T09:40:02;7.50;99.90
1453;DHT22;720;47.738;7.998;2023-04-01T09:42:43;7.70;99.90
1453;DHT22;720;47.738;7.998;2023-04-01T09:59:11;7.80;99.90
1453;DHT22;720;47.738;7.998;2023-04-01T10:10:33;7.80;99.90
1453;DHT22;720;47.738;7.998;2023-04-01T10:19:12;7.80;99.90
1453;DHT22;720;47.738;7.998;2023-04-01T10:21:59;7.70;99.90
1453;DHT22;720;47.738;7.998;2023-04-01T10:30:24;8.20;99.90
1453;DHT22;720;47.738;7.998;2023-04-01T10:36:04;8.10;99.90
1453;DHT22;720;47.738;7.998;2023-04-01T10:42:29;7.80;99.90
1453;DHT22;720;47.738;7.998;2023-04-01T11:04:38;7.90;99.90
1453;DHT22;720;47.738;7.998;2023-04-01T11:16:24;7.70;99.90
1453;DHT22;720;47.738;7.998;2023-04-01T11:23:54;7.80;99.90
1453;DHT22;720;47.738;7.998;2023-04-01T11:29:11;7.90;99.90
1453;DHT22;720;47.738;7.998;2023-04-01T11:31:58;7.90;99.90
1453;DHT22;720;47.738;7.998;2023-04-01T11:42:40;7.70;99.90
1453;DHT22;720;47.738;7.998;2023-04-01T11:45:37;7.50;99.90
1453;DHT22;720;47.738;7.998;2023-04-01T12:02:21;8.10;99.90
1453;DHT22;720;47.738;7.998;2023-04-01T12:35:25;8.80;99.90
1453;DHT22;720;47.738;7.998;2023-04-01T12:38:15;8.70;99.90
1453;DHT22;720;47.738;7.998;2023-04-01T12:49:45;8.90;99.90
1453;DHT22;720;47.738;7.998;2023-04-01T12:52:45;8.90;99.90
1453;DHT22;720;47.738;7.998;2023-04-01T12:55:36;8.80;99.90
1453;DHT22;720;47.738;7.998;2023-04-01T13:01:24;9.40;99.90
1453;DHT22;720;47.738;7.998;2023-04-01T13:09:36;8.80;99.90
1453;DHT22;720;47.738;7.998;2023-04-01T13:12:28;9.10;99.90
1453;DHT22;720;47.738;7.998;2023-04-01T13:20:35;10.10;99.90
1453;DHT22;720;47.738;7.998;2023-04-01T13:23:16;9.90;99.90
1453;DHT22;720;47.738;7.998;2023-04-01T13:26:00;10.00;99.90
1453;DHT22;720;47.738;7.998;2023-04-01T13:29:12;10.40;99.90
1453;DHT22;720;47.738;7.998;2023-04-01T13:40:04;10.70;99.90
1453;DHT22;720;47.738;7.998;2023-04-01T13:42:53;10.70;99.00
1453;DHT22;720;47.738;7.998;2023-04-01T13:45:26;10.80;99.70
1453;DHT22;720;47.738;7.998;2023-04-01T13:48:04;10.90;99.10
1453;DHT22;720;47.738;7.998;2023-04-01T13:53:30;9.80;99.70
1453;DHT22;720;47.738;7.998;2023-04-01T13:58:50;9.90;99.90
1453;DHT22;720;47.738;7.998;2023-04-01T14:01:41;10.10;99.90
1453;DHT22;720;47.738;7.998;2023-04-01T14:18:25;11.80;97.90
1453;DHT22;720;47.738;7.998;2023-04-01T14:21:33;12.00;97.50
1453;DHT22;720;47.738;7.998;2023-04-01T14:24:42;11.90;97.70
1453;DHT22;720;47.738;7.998;2023-04-01T14:29:56;11.90;97.00
1453;DHT22;720;47.738;7.998;2023-04-01T14:35:15;11.80;97.60
1453;DHT22;720;47.738;7.998;2023-04-01T14:40:44;11.50;97.60
1453;DHT22;720;47.738;7.998;2023-04-01T14:48:39;10.20;98.60
1453;DHT22;720;47.738;7.998;2023-04-01T14:51:22;10.00;99.20
1453;DHT22;720;47.738;7.998;2023-04-01T14:56:42;9.40;99.90
1453;DHT22;720;47.738;7.998;2023-04-01T15:04:41;9.30;99.90
1453;DHT22;720;47.738;7.998;2023-04-01T15:07:31;9.10;99.90
1453;DHT22;720;47.738;7.998;2023-04-01T15:16:10;9.30;99.90
1453;DHT22;720;47.738;7.998;2023-04-01T15:19:01;9.50;99.90
1453;DHT22;720;47.738;7.998;2023-04-01T15:30:21;10.50;98.20
1453;DHT22;720;47.738;7.998;2023-04-01T15:35:56;10.40;98.20
1453;DHT22;720;47.738;7.998;2023-04-01T15:38:58;10.30;98.10
1453;DHT22;720;47.738;7.998;2023-04-01T16:01:39;10.10;99.90
1453;DHT22;720;47.738;7.998;2023-04-01T16:07:17;10.20;99.30
1453;DHT22;720;47.738;7.998;2023-04-01T16:10:21;10.20;99.40
1453;DHT22;720;47.738;7.998;2023-04-01T16:16:07;10.30;99.30
1453;DHT22;720;47.738;7.998;2023-04-01T16:21:53;10.30;99.30
1453;DHT22;720;47.738;7.998;2023-04-01T16:29:46;10.00;99.50
1453;DHT22;720;47.738;7.998;2023-04-01T16:32:34;9.80;99.90
1453;DHT22;720;47.738;7.998;2023-04-01T16:35:20;9.60;99.90
1453;DHT22;720;47.738;7.998;2023-04-01T16:40:47;9.50;99.90
1453;DHT22;720;47.738;7.998;2023-04-01T16:43:46;9.60;99.90
1453;DHT22;720;47.738;7.998;2023-04-01T16:49:27;9.50;99.90
1453;DHT22;720;47.738;7.998;2023-04-01T16:52:04;9.50;99.90
1453;DHT22;720;47.738;7.998;2023-04-01T16:55:02;9.30;99.90
1453;DHT22;720;47.738;7.998;2023-04-01T16:57:50;9.30;99.90
1453;DHT22;720;47.738;7.998;2023-04-01T17:00:41;9.40;99.90
1453;DHT22;720;47.738;7.998;2023-04-01T17:03:33;9.40;99.90
1453;DHT22;720;47.738;7.998;2023-04-01T17:08:43;9.30;99.90
1453;DHT22;720;47.738;7.998;2023-04-01T17:12:04;9.30;99.90
1453;DHT22;720;47.738;7.998;2023-04-01T17:22:54;8.90;99.90
1453;DHT22;720;47.738;7.998;2023-04-01T17:52:31;8.50;99.90
1453;DHT22;720;47.738;7.998;2023-04-01T17:55:40;8.40;99.90
1453;DHT22;720;47.738;7.998;2023-04-01T18:00:54;8.20;99.90
1453;DHT22;720;47.738;7.998;2023-04-01T18:14:45;8.20;99.90
1453;DHT22;720;47.738;7.998;2023-04-01T18:22:47;8.20;99.90
1453;DHT22;720;47.738;7.998;2023-04-01T18:25:38;8.20;99.90
1453;DHT22;720;47.738;7.998;2023-04-01T18:28:22;8.20;99.90
1453;DHT22;720;47.738;7.998;2023-04-01T18:31:08;8.10;99.90
1453;DHT22;720;47.738;7.998;2023-04-01T18:34:37;7.90;99.90
1453;DHT22;720;47.738;7.998;2023-04-01T18:36:53;7.90;99.90
1453;DHT22;720;47.738;7.998;2023-04-01T18:39:35;7.90;99.90
1453;DHT22;720;47.738;7.998;2023-04-01T18:47:50;8.00;99.90
1453;DHT22;720;47.738;7.998;2023-04-01T18:53:24;8.00;99.90
1453;DHT22;720;47.738;7.998;2023-04-01T18:56:12;8.10;99.90
1453;DHT22;720;47.738;7.998;2023-04-01T19:01:40;8.10;99.90
1453;DHT22;720;47.738;7.998;2023-04-01T19:12:15;8.00;99.90
1453;DHT22;720;47.738;7.998;2023-04-01T19:15:13;8.00;99.90
1453;DHT22;720;47.738;7.998;2023-04-01T19:17:58;8.00;99.90
1453;DHT22;720;47.738;7.998;2023-04-01T19:20:32;8.00;99.90
1453;DHT22;720;47.738;7.998;2023-04-01T19:23:31;8.00;99.90
1453;DHT22;720;47.738;7.998;2023-04-01T19:26:05;8.00;99.90
1453;DHT22;720;47.738;7.998;2023-04-01T19:34:22;8.00;99.90
1453;DHT22;720;47.738;7.998;2023-04-01T19:37:19;7.90;99.90
1453;DHT22;720;47.738;7.998;2023-04-01T19:40:00;7.90;99.90
1453;DHT22;720;47.738;7.998;2023-04-01T19:43:03;8.10;99.90
1453;DHT22;720;47.738;7.998;2023-04-01T19:45:44;8.10;99.90
1453;DHT22;720;47.738;7.998;2023-04-01T19:50:56;8.30;99.90
1453;DHT22;720;47.738;7.998;2023-04-01T19:53:50;8.10;99.90
1453;DHT22;720;47.738;7.998;2023-04-01T19:56:23;8.00;99.90
1453;DHT22;720;47.738;7.998;2023-04-01T19:59:16;8.00;99.90
1453;DHT22;720;47.738;7.998;2023-04-01T20:01:52;7.90;99.90
1453;DHT22;720;47.738;7.998;2023-04-01T20:04:32;7.80;99.90
1453;DHT22;720;47.738;7.998;2023-04-01T20:07:21;7.70;99.90
1453;DHT22;720;47.738;7.998;2023-04-01T20:14:58;7.40;99.90
1453;DHT22;720;47.738;7.998;2023-04-01T20:25:47;7.20;99.90
1453;DHT22;720;47.738;7.998;2023-04-01T20:47:20;7.10;99.90
1453;DHT22;720;47.738;7.998;2023-04-01T20:52:22;7.10;99.90
1453;DHT22;720;47.738;7.998;2023-04-01T20:55:13;7.20;99.90
1453;DHT22;720;47.738;7.998;2023-04-01T21:19:48;7.40;99.90
1453;DHT22;720;47.738;7.998;2023-04-01T21:30:35;7.70;99.90
1453;DHT22;720;47.738;7.998;2023-04-01T21:36:03;7.40;99.90
1453;DHT22;720;47.738;7.998;2023-04-01T21:43:58;7.30;99.90
1453;DHT22;720;47.738;7.998;2023-04-01T21:58:39;7.20;99.90
1453;DHT22;720;47.738;7.998;2023-04-01T22:01:42;7.20;99.90
1453;DHT22;720;47.738;7.998;2023-04-01T22:07:21;7.00;99.90
1453;DHT22;720;47.738;7.998;2023-04-01T22:10:13;7.20;99.90
1453;DHT22;720;47.738;7.998;2023-04-01T22:13:06;7.30;99.90
1453;DHT22;720;47.738;7.998;2023-04-01T22:18:32;7.50;99.90
1453;DHT22;720;47.738;7.998;2023-04-01T22:24:11;7.40;99.90
1453;DHT22;720;47.738;7.998;2023-04-01T22:26:44;7.40;99.90
1453;DHT22;720;47.738;7.998;2023-04-01T22:29:17;7.50;99.90
1453;DHT22;720;47.738;7.998;2023-04-01T22:31:59;7.40;99.90
1453;DHT22;720;47.738;7.998;2023-04-01T22:34:53;7.40;99.90
1453;DHT22;720;47.738;7.998;2023-04-01T22:37:49;7.30;99.90
1453;DHT22;720;47.738;7.998;2023-04-01T22:43:11;7.30;99.90
1453;DHT22;720;47.738;7.998;2023-04-01T22:48:30;7.50;99.90
1453;DHT22;720;47.738;7.998;2023-04-01T22:53:47;7.70;99.90
1453;DHT22;720;47.738;7.998;2023-04-01T22:56:21;7.60;99.90
1453;DHT22;720;47.738;7.998;2023-04-01T22:58:56;7.50;99.90
1453;DHT22;720;47.738;7.998;2023-04-01T23:01:29;7.50;99.90
1453;DHT22;720;47.738;7.998;2023-04-01T23:03:56;7.50;99.90
1453;DHT22;720;47.738;7.998;2023-04-01T23:06:27;7.70;99.90
1453;DHT22;720;47.738;7.998;2023-04-01T23:20:54;7.50;99.90
1453;DHT22;720;47.738;7.998;2023-04-01T23:28:58;7.70;99.90
1453;DHT22;720;47.738;7.998;2023-04-01T23:31:33;7.70;99.90
1453;DHT22;720;47.738;7.998;2023-04-01T23:36:28;7.70;99.90
1453;DHT22;720;47.738;7.998;2023-04-01T23:38:55;7.70;99.90
1453;DHT22;720;47.738;7.998;2023-04-01T23:41:23;7.80;99.90
1453;DHT22;720;47.738;7.998;2023-04-01T23:44:04;7.70;99.90
1453;DHT22;720;47.738;7.998;2023-04-01T23:46:32;7.60;99.90
1453;DHT22;720;47.738;7.998;2023-04-01T23:49:01;7.60;99.90
1453;DHT22;720;47.738;7.998;2023-04-01T23:51:39;7.60;99.90
1453;DHT22;720;47.738;7.998;2023-04-01T23:54:24;7.60;99.90
1453;DHT22;720;47.738;7.998;2023-04-01T23:56:54;7.70;99.90
1453;DHT22;720;47.738;7.998;2023-04-01T23:59:33;7.70;99.90
